METAR Data
IDs: Format: Raw Decoded Include TAF

Data at: 0918 UTC 07 Dec 2022

KMGJ 070854Z AUTO 20005KT 7SM -RA FEW007 SCT029 OVC040 12/11 A3015 RMK AO2 RAE0756B29 SLP211 P0003 60005 T01170111 58004